createdAt,value
2018-10-16T00:02:11.137Z,10.20
2018-10-16T00:04:40.797Z,8.80
2018-10-16T00:07:10.409Z,9.40
2018-10-16T00:09:40.352Z,9.40
2018-10-16T00:12:10.078Z,10.80
2018-10-16T00:14:40.969Z,9.20
2018-10-16T00:17:10.680Z,11.00
2018-10-16T00:19:40.675Z,11.60
2018-10-16T00:22:10.313Z,10.60
2018-10-16T00:24:39.992Z,10.40
2018-10-16T00:27:09.585Z,10.00
2018-10-16T00:29:39.535Z,8.40
2018-10-16T00:32:09.439Z,10.60
2018-10-16T00:34:39.221Z,10.80
2018-10-16T00:37:09.037Z,9.60
2018-10-16T00:39:38.700Z,7.60
2018-10-16T00:42:08.960Z,11.40
2018-10-16T00:44:38.607Z,8.40
2018-10-16T00:47:08.335Z,10.80
2018-10-16T00:49:37.930Z,8.40
2018-10-16T00:52:08.090Z,7.20
2018-10-16T00:54:38.617Z,9.80
2018-10-16T00:57:08.281Z,10.40
2018-10-16T00:59:37.943Z,9.20
2018-10-16T01:02:07.980Z,10.80
2018-10-16T01:04:37.603Z,10.80
2018-10-16T01:07:07.195Z,9.60
2018-10-16T01:09:36.887Z,9.60
2018-10-16T01:12:06.733Z,9.60
2018-10-16T01:14:37.395Z,10.00
2018-10-16T01:17:07.252Z,10.00
2018-10-16T01:19:37.043Z,8.40
2018-10-16T01:22:07.026Z,10.20
2018-10-16T01:24:36.694Z,10.40
2018-10-16T01:27:06.423Z,10.80
2018-10-16T01:29:36.096Z,9.60
2018-10-16T01:32:05.979Z,7.00
2018-10-16T01:34:35.647Z,4.80
2018-10-16T01:37:05.451Z,10.00
2018-10-16T01:39:35.191Z,6.00
2018-10-16T01:42:04.972Z,7.80
2018-10-16T01:44:34.657Z,9.60
2018-10-16T01:47:04.384Z,8.00
2018-10-16T01:49:34.179Z,10.40
2018-10-16T01:52:03.907Z,8.00
2018-10-16T01:54:33.764Z,8.40
2018-10-16T01:57:03.427Z,8.00
2018-10-16T01:59:33.132Z,8.00
2018-10-16T02:02:03.028Z,8.80
2018-10-16T02:04:33.098Z,8.00
2018-10-16T02:07:02.702Z,10.00
2018-10-16T02:09:32.401Z,8.20
2018-10-16T02:12:02.106Z,5.00
2018-10-16T02:14:31.772Z,10.00
2018-10-16T02:17:01.585Z,10.00
2018-10-16T02:19:31.564Z,7.20
2018-10-16T02:22:01.198Z,10.00
2018-10-16T02:24:30.813Z,8.20
2018-10-16T02:27:00.510Z,8.40
2018-10-16T02:29:30.800Z,8.80
2018-10-16T02:32:00.349Z,8.40
2018-10-16T02:34:30.013Z,8.20
2018-10-16T02:36:59.480Z,7.00
2018-10-16T02:39:29.493Z,10.20
2018-10-16T02:41:59.149Z,10.60
2018-10-16T02:44:28.688Z,7.80
2018-10-16T02:46:58.350Z,7.40
2018-10-16T02:49:28.476Z,8.00
2018-10-16T02:51:58.045Z,8.00
2018-10-16T02:54:27.665Z,7.40
2018-10-16T02:56:57.456Z,7.20
2018-10-16T02:59:27.213Z,7.40
2018-10-16T03:01:56.923Z,7.00
2018-10-16T03:04:27.056Z,3.80
2018-10-16T03:06:56.684Z,8.00
2018-10-16T03:09:26.387Z,6.40
2018-10-16T03:11:56.880Z,7.20
2018-10-16T03:14:27.011Z,7.20
2018-10-16T03:16:56.703Z,8.40
2018-10-16T03:19:27.909Z,8.00
2018-10-16T03:21:57.556Z,8.80
2018-10-16T03:24:27.197Z,8.20
2018-10-16T03:26:56.700Z,7.80
2018-10-16T03:29:26.388Z,8.00
2018-10-16T03:31:56.343Z,7.00
2018-10-16T03:34:26.025Z,7.00
2018-10-16T03:36:55.585Z,7.00
2018-10-16T03:39:25.153Z,8.00
2018-10-16T03:41:54.847Z,7.80
2018-10-16T03:44:25.273Z,8.20
2018-10-16T03:46:57.072Z,6.60
2018-10-16T03:49:27.085Z,8.60
2018-10-16T03:51:56.829Z,7.80
2018-10-16T03:54:26.348Z,7.20
2018-10-16T03:56:55.997Z,7.40
2018-10-16T03:59:26.097Z,8.00
2018-10-16T04:01:56.113Z,8.40
2018-10-16T04:04:25.734Z,7.00
2018-10-16T04:06:55.376Z,7.20
2018-10-16T04:09:27.673Z,8.00
2018-10-16T04:11:58.412Z,8.40
2018-10-16T04:14:28.124Z,8.60
2018-10-16T04:16:57.702Z,7.00
2018-10-16T04:22:51.080Z,7.80
2018-10-16T04:25:20.846Z,8.20
2018-10-16T04:27:50.801Z,8.80
2018-10-16T04:30:20.449Z,8.00
2018-10-16T04:32:50.062Z,7.20
2018-10-16T04:35:20.085Z,10.00
2018-10-16T04:37:49.863Z,7.20
2018-10-16T04:40:20.041Z,8.00
2018-10-16T04:42:49.596Z,8.80
2018-10-16T04:45:19.773Z,6.60
2018-10-16T04:47:49.750Z,7.00
2018-10-16T04:50:19.273Z,7.00
2018-10-16T04:52:49.071Z,8.00
2018-10-16T04:55:18.763Z,7.00
2018-10-16T04:57:48.704Z,7.60
2018-10-16T05:00:18.889Z,7.00
2018-10-16T05:02:48.449Z,7.00
2018-10-16T05:05:22.462Z,7.80
2018-10-16T05:07:52.659Z,8.00
2018-10-16T05:10:22.743Z,7.80
2018-10-16T05:12:52.259Z,7.60
2018-10-16T05:15:26.764Z,8.80
2018-10-16T05:17:56.457Z,6.60
2018-10-16T05:20:26.316Z,8.00
2018-10-16T05:22:56.950Z,7.00
2018-10-16T05:25:27.915Z,7.40
2018-10-16T05:27:58.219Z,8.20
2018-10-16T05:30:28.440Z,7.20
2018-10-16T05:32:58.112Z,7.20
2018-10-16T05:35:27.617Z,8.20
2018-10-16T05:37:56.964Z,7.20
2018-10-16T05:40:26.865Z,8.00
2018-10-16T05:42:56.172Z,7.80
2018-10-16T05:45:27.200Z,5.80
2018-10-16T05:47:56.498Z,6.20
2018-10-16T05:50:25.812Z,8.60
2018-10-16T05:52:56.795Z,7.80
2018-10-16T05:55:26.669Z,6.20
2018-10-16T05:57:55.964Z,7.40
2018-10-16T06:00:45.853Z,8.00
2018-10-16T06:03:15.451Z,8.60
2018-10-16T06:05:44.869Z,7.20
2018-10-16T06:08:14.726Z,9.40
2018-10-16T06:10:44.125Z,8.00
2018-10-16T06:13:14.047Z,7.80
2018-10-16T06:15:44.262Z,8.40
2018-10-16T06:18:14.765Z,8.80
2018-10-16T06:20:44.349Z,7.40
2018-10-16T06:23:13.905Z,9.00
2018-10-16T06:25:43.513Z,8.80
2018-10-16T06:28:24.502Z,7.20
2018-10-16T06:30:55.538Z,8.40
2018-10-16T06:33:27.043Z,7.80
2018-10-16T06:35:56.458Z,7.80
2018-10-16T06:38:26.056Z,7.40
2018-10-16T06:40:55.723Z,7.80
2018-10-16T06:43:25.184Z,7.80
2018-10-16T06:45:54.746Z,7.60
2018-10-16T06:48:24.793Z,8.00
2018-10-16T06:50:54.705Z,7.20
2018-10-16T06:53:24.959Z,8.20
2018-10-16T06:55:54.403Z,7.40
2018-10-16T06:58:24.228Z,7.60
2018-10-16T07:00:54.239Z,7.00
2018-10-16T07:03:35.544Z,7.60
2018-10-16T07:06:05.612Z,7.80
2018-10-16T07:08:37.242Z,8.00
2018-10-16T07:11:10.101Z,7.80
2018-10-16T07:13:40.125Z,8.00
2018-10-16T07:16:11.529Z,8.00
2018-10-16T07:18:45.041Z,8.40
2018-10-16T07:21:25.368Z,8.20
2018-10-16T07:23:55.631Z,8.40
2018-10-16T07:26:31.278Z,9.00
2018-10-16T07:29:14.123Z,7.20
2018-10-16T07:31:52.701Z,8.40
2018-10-16T07:34:24.573Z,7.60
2018-10-16T07:36:59.792Z,8.40
2018-10-16T07:39:31.263Z,8.40
2018-10-16T07:42:00.992Z,7.60
2018-10-16T07:44:30.603Z,8.20
2018-10-16T07:47:00.244Z,7.60
2018-10-16T07:49:29.712Z,11.00
2018-10-16T07:51:59.547Z,7.20
2018-10-16T07:54:29.059Z,8.80
2018-10-16T07:56:59.375Z,8.00
2018-10-16T07:59:29.638Z,8.80
2018-10-16T08:01:59.425Z,7.60
2018-10-16T08:04:29.115Z,7.00
2018-10-16T08:06:59.407Z,8.80
2018-10-16T08:09:35.008Z,8.00
2018-10-16T08:12:08.821Z,6.20
2018-10-16T08:14:40.929Z,9.00
2018-10-16T08:17:10.832Z,8.20
2018-10-16T08:19:41.001Z,9.00
2018-10-16T08:22:12.512Z,8.20
2018-10-16T08:24:42.122Z,8.00
2018-10-16T08:27:11.662Z,9.00
2018-10-16T08:29:41.441Z,8.60
2018-10-16T08:32:11.064Z,8.00
2018-10-16T08:34:40.569Z,7.80
2018-10-16T08:37:13.139Z,7.00
2018-10-16T08:39:45.238Z,9.00
2018-10-16T08:43:23.656Z,7.00
2018-10-16T08:46:04.531Z,9.00
2018-10-16T08:48:45.373Z,9.20
2018-10-16T08:51:26.165Z,7.40
2018-10-16T08:53:56.029Z,9.00
2018-10-16T08:56:25.840Z,8.40
2018-10-16T08:58:56.191Z,5.20
2018-10-16T09:01:26.197Z,9.00
2018-10-16T09:03:56.363Z,8.00
2018-10-16T09:06:26.191Z,8.00
2018-10-16T09:08:56.621Z,8.40
2018-10-16T09:11:26.220Z,8.80
2018-10-16T09:14:01.743Z,9.00
2018-10-16T09:16:38.028Z,7.40
2018-10-16T09:19:07.728Z,8.60
2018-10-16T09:21:37.839Z,8.20
2018-10-16T09:24:07.776Z,8.00
2018-10-16T09:26:37.355Z,8.00
2018-10-16T09:29:07.323Z,6.20
2018-10-16T09:31:37.078Z,8.00
2018-10-16T09:34:07.097Z,8.00
2018-10-16T09:36:37.146Z,8.00
2018-10-16T09:39:10.259Z,8.00
2018-10-16T09:41:40.439Z,9.00
2018-10-16T09:44:10.402Z,8.00
2018-10-16T09:46:40.116Z,8.80
2018-10-16T09:49:10.331Z,7.40
2018-10-16T09:51:39.929Z,10.20
2018-10-16T09:54:10.204Z,8.20
2018-10-16T09:56:40.313Z,8.00
2018-10-16T09:59:09.961Z,8.00
2018-10-16T10:01:47.400Z,7.80
2018-10-16T10:04:18.169Z,9.00
2018-10-16T10:06:48.276Z,9.00
2018-10-16T10:09:18.051Z,10.60
2018-10-16T10:11:47.913Z,8.20
2018-10-16T10:14:17.483Z,8.20
2018-10-16T10:16:47.560Z,8.80
2018-10-16T10:19:20.129Z,8.40
2018-10-16T10:21:51.383Z,9.00
2018-10-16T10:24:21.264Z,8.20
2018-10-16T10:26:53.173Z,9.00
2018-10-16T10:29:28.684Z,8.40
2018-10-16T10:31:58.856Z,9.20
2018-10-16T10:34:28.330Z,10.00
2018-10-16T10:36:58.996Z,9.40
2018-10-16T10:39:29.063Z,11.00
2018-10-16T10:41:58.783Z,9.20
2018-10-16T10:44:28.532Z,9.00
2018-10-16T10:46:58.261Z,7.00
2018-10-16T10:49:28.150Z,11.00
2018-10-16T10:51:58.099Z,8.80
2018-10-16T10:54:27.819Z,10.60
2018-10-16T10:56:58.127Z,10.20
2018-10-16T10:59:27.860Z,8.60
2018-10-16T11:01:58.316Z,9.40
2018-10-16T11:04:28.411Z,8.00
2018-10-16T11:06:57.918Z,8.60
2018-10-16T11:09:28.285Z,9.00
2018-10-16T11:11:58.412Z,11.00
2018-10-16T11:14:28.852Z,10.60
2018-10-16T11:16:58.493Z,8.60
2018-10-16T11:19:28.174Z,10.60
2018-10-16T11:21:57.544Z,9.00
2018-10-16T11:24:27.271Z,8.80
2018-10-16T11:26:57.404Z,8.60
2018-10-16T11:29:27.275Z,9.40
2018-10-16T11:31:56.760Z,10.40
2018-10-16T11:34:27.023Z,8.60
2018-10-16T11:36:56.700Z,9.00
2018-10-16T11:39:26.628Z,10.60
2018-10-16T11:42:05.021Z,10.20
2018-10-16T11:44:34.640Z,10.20
2018-10-16T11:47:04.200Z,2.00
2018-10-16T11:49:33.881Z,9.40
2018-10-16T11:52:03.416Z,9.00
2018-10-16T11:54:33.289Z,8.80
2018-10-16T11:57:02.848Z,9.00
2018-10-16T11:59:32.812Z,8.20
2018-10-16T12:02:02.891Z,7.00
2018-10-16T12:04:32.547Z,9.80
2018-10-16T12:07:02.546Z,9.20
2018-10-16T12:09:32.194Z,8.00
2018-10-16T12:12:03.734Z,9.60
2018-10-16T12:14:34.102Z,9.00
2018-10-16T12:17:08.878Z,11.20
2018-10-16T12:19:42.906Z,10.20
2018-10-16T12:22:12.431Z,11.00
2018-10-16T12:24:42.137Z,11.00
2018-10-16T12:27:12.263Z,12.00
2018-10-16T12:29:44.085Z,8.60
2018-10-16T12:32:13.680Z,10.40
2018-10-16T12:34:43.439Z,10.20
2018-10-16T12:37:13.140Z,12.00
2018-10-16T12:39:42.958Z,8.80
2018-10-16T12:42:13.387Z,10.20
2018-10-16T12:44:43.461Z,9.00
2018-10-16T12:47:13.089Z,11.20
2018-10-16T12:49:43.259Z,8.60
2018-10-16T12:52:13.175Z,10.20
2018-10-16T12:54:42.700Z,9.20
2018-10-16T12:57:14.590Z,8.60
2018-10-16T12:59:44.222Z,9.00
2018-10-16T13:02:14.237Z,9.40
2018-10-16T13:04:44.063Z,8.20
2018-10-16T13:07:23.355Z,10.20
2018-10-16T13:09:53.176Z,8.40
2018-10-16T13:12:22.956Z,9.00
2018-10-16T13:14:52.803Z,7.00
2018-10-16T13:17:22.775Z,9.80
2018-10-16T13:19:52.484Z,8.40
2018-10-16T13:22:22.229Z,10.60
2018-10-16T13:24:52.236Z,11.00
2018-10-16T13:27:24.857Z,8.20
2018-10-16T13:29:55.069Z,10.20
2018-10-16T13:32:24.600Z,6.60
2018-10-16T13:34:54.604Z,9.40
2018-10-16T13:37:24.477Z,8.40
2018-10-16T13:39:54.629Z,8.60
2018-10-16T13:42:24.453Z,10.60
2018-10-16T13:44:53.958Z,10.60
2018-10-16T13:47:23.642Z,9.60
2018-10-16T13:49:54.184Z,7.40
2018-10-16T13:52:24.031Z,8.20
2018-10-16T13:54:53.841Z,11.20
2018-10-16T13:57:23.873Z,8.60
2018-10-16T13:59:54.410Z,10.20
2018-10-16T14:02:24.474Z,9.80
2018-10-16T14:04:54.270Z,10.20
2018-10-16T14:07:24.336Z,9.40
2018-10-16T14:09:55.722Z,6.80
2018-10-16T14:12:27.632Z,10.60
2018-10-16T14:14:59.008Z,11.40
2018-10-16T14:17:28.981Z,12.00
2018-10-16T14:19:59.234Z,10.60
2018-10-16T14:22:29.424Z,11.60
2018-10-16T14:24:59.612Z,9.00
2018-10-16T14:27:30.911Z,12.40
2018-10-16T14:30:03.197Z,10.20
2018-10-16T14:32:32.946Z,8.80
2018-10-16T14:35:03.094Z,12.00
2018-10-16T14:37:39.472Z,11.00
2018-10-16T14:40:14.399Z,12.20
2018-10-16T14:42:44.662Z,10.40
2018-10-16T14:45:15.268Z,11.00
2018-10-16T14:47:44.907Z,10.20
2018-10-16T14:50:15.934Z,9.20
2018-10-16T14:52:45.605Z,11.40
2018-10-16T14:55:15.714Z,10.20
2018-10-16T14:57:45.850Z,9.00
2018-10-16T15:00:16.186Z,9.40
2018-10-16T15:02:46.227Z,10.20
2018-10-16T15:05:17.181Z,12.00
2018-10-16T15:07:48.430Z,9.00
2018-10-16T15:10:18.258Z,9.00
2018-10-16T15:12:49.173Z,8.80
2018-10-16T15:15:19.473Z,9.40
2018-10-16T15:17:50.033Z,9.40
2018-10-16T15:20:21.207Z,9.00
2018-10-16T15:22:51.282Z,8.40
2018-10-16T15:25:21.059Z,9.00
2018-10-16T15:27:50.641Z,10.60
2018-10-16T15:30:20.697Z,6.60
2018-10-16T15:32:50.727Z,9.00
2018-10-16T15:35:20.624Z,9.40
2018-10-16T15:37:50.254Z,9.20
2018-10-16T15:40:20.182Z,9.60
2018-10-16T15:42:52.070Z,9.40
2018-10-16T15:45:23.297Z,12.00
2018-10-16T15:47:54.170Z,9.00
2018-10-16T15:50:23.739Z,11.20
2018-10-16T15:52:53.649Z,9.20
2018-10-16T15:55:23.432Z,9.20
2018-10-16T15:57:53.220Z,11.20
2018-10-16T16:00:23.268Z,11.40
2018-10-16T16:02:53.051Z,13.40
2018-10-16T16:05:22.692Z,28.60
2018-10-16T16:07:56.055Z,28.80
2018-10-16T16:10:26.999Z,25.80
2018-10-16T16:12:57.765Z,28.00
2018-10-16T16:15:29.903Z,25.80
2018-10-16T16:18:00.082Z,28.60
2018-10-16T16:20:30.204Z,30.20
2018-10-16T16:23:00.399Z,27.20
2018-10-16T16:25:31.574Z,19.80
2018-10-16T16:28:01.375Z,29.00
2018-10-16T16:30:31.040Z,27.20
2018-10-16T16:33:00.640Z,27.60
2018-10-16T16:35:30.010Z,25.40
2018-10-16T16:38:00.034Z,30.00
2018-10-16T16:40:29.464Z,28.20
2018-10-16T16:42:58.836Z,21.40
2018-10-16T16:45:28.500Z,23.20
2018-10-16T16:47:59.974Z,23.40
2018-10-16T16:50:30.498Z,26.40
2018-10-16T16:53:00.365Z,26.00
2018-10-16T16:55:29.734Z,18.80
2018-10-16T16:57:59.449Z,24.60
2018-10-16T17:00:29.076Z,23.20
2018-10-16T17:02:58.532Z,25.20
2018-10-16T17:05:28.090Z,24.20
2018-10-16T17:07:57.893Z,15.60
2018-10-16T17:10:27.889Z,23.20
2018-10-16T17:12:57.575Z,25.00
2018-10-16T17:15:28.056Z,21.60
2018-10-16T17:17:57.430Z,22.20
2018-10-16T17:20:36.215Z,21.40
2018-10-16T17:23:06.618Z,17.40
2018-10-16T17:25:36.508Z,19.20
2018-10-16T17:28:07.718Z,20.20
2018-10-16T17:30:37.176Z,22.20
2018-10-16T17:33:07.133Z,19.40
2018-10-16T17:35:36.567Z,19.60
2018-10-16T17:38:06.422Z,17.80
2018-10-16T17:40:36.310Z,25.20
2018-10-16T17:43:08.863Z,18.40
2018-10-16T17:45:38.510Z,20.20
2018-10-16T17:48:08.673Z,20.20
2018-10-16T17:50:39.129Z,17.80
2018-10-16T17:53:13.177Z,19.40
2018-10-16T17:55:42.519Z,18.60
2018-10-16T17:58:12.336Z,13.20
2018-10-16T18:00:44.090Z,18.80
2018-10-16T18:03:13.734Z,18.00
2018-10-16T18:05:43.170Z,18.80
2018-10-16T18:08:12.870Z,20.20
2018-10-16T18:10:43.606Z,14.60
2018-10-16T18:13:13.581Z,14.60
2018-10-16T18:15:43.071Z,18.00
2018-10-16T18:18:13.273Z,17.40
2018-10-16T18:20:43.428Z,19.00
2018-10-16T18:23:13.239Z,18.20
2018-10-16T18:25:43.183Z,17.20
2018-10-16T18:28:13.083Z,17.40
2018-10-16T18:30:43.125Z,18.00
2018-10-16T18:33:13.141Z,16.60
2018-10-16T18:35:42.499Z,15.60
2018-10-16T18:38:12.762Z,15.00
2018-10-16T18:40:43.133Z,14.60
2018-10-16T18:43:15.264Z,16.20
2018-10-16T18:45:45.893Z,15.00
2018-10-16T18:48:16.812Z,16.00
2018-10-16T18:50:46.509Z,15.60
2018-10-16T18:53:16.404Z,14.40
2018-10-16T18:55:47.092Z,9.60
2018-10-16T18:58:16.644Z,16.00
2018-10-16T19:00:46.533Z,14.80
2018-10-16T19:03:16.320Z,7.00
2018-10-16T19:05:45.873Z,14.80
2018-10-16T19:08:15.490Z,13.20
2018-10-16T19:10:45.696Z,11.20
2018-10-16T19:13:15.850Z,13.80
2018-10-16T19:15:45.467Z,7.20
2018-10-16T19:18:15.103Z,14.80
2018-10-16T19:20:48.622Z,13.20
2018-10-16T19:23:20.084Z,14.80
2018-10-16T19:25:51.451Z,14.00
2018-10-16T19:28:21.427Z,11.60
2018-10-16T19:30:51.193Z,9.40
2018-10-16T19:33:21.061Z,13.40
2018-10-16T19:35:51.539Z,12.60
2018-10-16T19:38:21.528Z,11.20
2018-10-16T19:40:51.789Z,12.00
2018-10-16T19:43:21.767Z,12.40
2018-10-16T19:45:51.869Z,12.40
2018-10-16T19:48:21.232Z,11.00
2018-10-16T19:50:51.818Z,12.40
2018-10-16T19:53:21.666Z,11.00
2018-10-16T19:55:51.744Z,10.20
2018-10-16T19:58:21.697Z,14.40
2018-10-16T20:00:51.255Z,12.00
2018-10-16T20:03:21.811Z,11.40
2018-10-16T20:05:52.980Z,13.00
2018-10-16T20:08:23.096Z,12.80
2018-10-16T20:10:53.129Z,10.60
2018-10-16T20:13:22.766Z,10.80
2018-10-16T20:15:52.564Z,10.00
2018-10-16T20:18:22.295Z,9.20
2018-10-16T20:20:52.642Z,9.60
2018-10-16T20:23:22.585Z,11.40
2018-10-16T20:25:52.743Z,11.00
2018-10-16T20:28:23.196Z,9.80
2018-10-16T20:30:53.311Z,10.60
2018-10-16T20:33:23.441Z,10.60
2018-10-16T20:35:55.057Z,9.40
2018-10-16T20:38:25.120Z,11.00
2018-10-16T20:40:56.340Z,9.60
2018-10-16T20:43:25.809Z,8.60
2018-10-16T20:45:57.060Z,9.00
2018-10-16T20:48:27.418Z,8.80
2018-10-16T20:50:57.752Z,8.20
2018-10-16T20:53:29.325Z,9.00
2018-10-16T20:55:59.189Z,10.60
2018-10-16T20:58:29.811Z,9.80
2018-10-16T21:01:00.908Z,9.20
2018-10-16T21:03:32.998Z,9.80
2018-10-16T21:06:02.934Z,9.00
2018-10-16T21:08:33.666Z,8.40
2018-10-16T21:11:04.184Z,9.00
2018-10-16T21:13:34.169Z,9.00
2018-10-16T21:16:04.087Z,7.00
2018-10-16T21:18:35.209Z,7.40
2018-10-16T21:21:12.426Z,10.00
2018-10-16T21:23:43.514Z,8.20
2018-10-16T21:26:14.606Z,8.20
2018-10-16T21:28:46.817Z,7.40
2018-10-16T21:31:18.001Z,7.80
2018-10-16T21:33:48.441Z,8.60
2018-10-16T21:36:20.433Z,8.00
2018-10-16T21:38:50.108Z,8.20
2018-10-16T21:41:20.308Z,8.80
2018-10-16T21:43:49.785Z,8.20
2018-10-16T21:46:19.279Z,8.60
2018-10-16T21:48:49.566Z,8.20
2018-10-16T21:51:19.328Z,9.80
2018-10-16T21:53:48.855Z,8.00
2018-10-16T21:56:19.153Z,6.40
2018-10-16T21:58:49.321Z,8.60
2018-10-16T22:01:22.339Z,7.40
2018-10-16T22:03:53.213Z,7.60
2018-10-16T22:06:24.101Z,7.60
2018-10-16T22:08:54.848Z,8.00
2018-10-16T22:11:25.824Z,7.80
2018-10-16T22:13:55.522Z,8.20
2018-10-16T22:16:25.144Z,7.00
2018-10-16T22:18:55.469Z,7.00
2018-10-16T22:21:25.261Z,7.40
2018-10-16T22:23:55.708Z,7.40
2018-10-16T22:26:25.368Z,9.20
2018-10-16T22:28:55.209Z,8.00
2018-10-16T22:31:25.229Z,8.00
2018-10-16T22:33:54.702Z,7.40
2018-10-16T22:36:24.696Z,8.00
2018-10-16T22:38:55.791Z,7.60
2018-10-16T22:41:25.258Z,6.60
2018-10-16T22:43:54.880Z,7.60
2018-10-16T22:48:52.082Z,6.80
2018-10-16T22:51:21.614Z,10.00
2018-10-16T22:53:51.282Z,8.40
2018-10-16T22:56:21.612Z,8.20
2018-10-16T22:58:51.296Z,7.40
2018-10-16T23:01:21.012Z,7.00
2018-10-16T23:03:50.859Z,5.40
2018-10-16T23:06:22.472Z,7.60
2018-10-16T23:08:52.181Z,7.60
2018-10-16T23:11:22.348Z,6.20
2018-10-16T23:13:51.936Z,7.40
2018-10-16T23:16:22.139Z,6.60
2018-10-16T23:18:51.726Z,7.80
2018-10-16T23:21:21.461Z,8.00
2018-10-16T23:23:51.462Z,5.80
2018-10-16T23:26:21.013Z,5.20
2018-10-16T23:28:50.692Z,7.60
2018-10-16T23:31:21.925Z,7.00
2018-10-16T23:33:51.535Z,4.80
2018-10-16T23:36:21.121Z,7.00
2018-10-16T23:38:50.652Z,7.00
2018-10-16T23:41:20.145Z,7.60
2018-10-16T23:43:49.802Z,7.00
2018-10-16T23:46:19.871Z,7.20
2018-10-16T23:48:49.419Z,5.40
2018-10-16T23:51:19.148Z,7.00
2018-10-16T23:53:48.790Z,6.40
2018-10-16T23:56:19.015Z,7.20
2018-10-16T23:58:48.524Z,7.60
